Search for airport 
image banner adimage banner adimage banner ad
image banner ad

0Q9 - Sonoma Skypark

Located in Sonoma, United States

ICAO - 0Q9, IATA -

Data provided by Airmate  

General information

Coordinates: N38°15'27" W122°26'3"
Elevation is 20 feet MSL.
Magnetic variation is 16° East
View others Airports in California

Operational data

Special qualification required
Current time UTC:
Current local time:
Weather at : KAPC - Napa County ( 14 km )
METAR: KAPC 240854Z AUTO 27011KT 10SM CLR 13/11 A2998 RMK AO2 SLP144 T01330111 50002
TAF: KAPC 240903Z 2409/2506 27010KT P6SM SKC TEMPO 2410/2411 OVC012 FM241100 27008KT P6SM OVC012 FM241530 26011KT P6SM FEW015 FM242100 20015KT P6SM SKC
View NOTAMs / SUP AIP / TFR affecting this airport [VIEW]
Communications frequencies: [VIEW]

Runways:

RWY identifierQFULength (ft)Width (ft)SurfaceLDA (ft)
08248040ASPH
26248040ASPH

Airport contact information

Address: Sonoma United States

Satellite view of 0Q9